Hlavní strana
METAR-TAF:

METAR-TAF

Letiště :

St. Charles County Airport (Smart Field)

Saint Charles, Missouri, Spojené státy americké

zeměpisná šířka: 38-55-50N, zeměpisná délka: 090-25-57W, výška: 133 m

Aktuální stav počasí

Zpráva byla vytvořena před 11 minutami, v 09:21 UTC
Východojihovýchodní vítr 5 kt
Teplota 6°C
Vlhkost vzduchu 87%
Tlak 1011 hPa
Viditelnost: 12.9 km
Oblačno až skoro zataženo ve výšce 1300 ft
Zataženo ve výšce 6000 ft
slabý déšť

METAR: KSET 240921Z AUTO 12005KT 8SM -RA BKN013 OVC060 06/04 A2985 RMK AO2 P0000 T00610044 $

Čas: 03:32 (09:32 UTC)


TAF: chybějící

Stav a předpovědi počasí z více než 4 000 letišť (zprávy METAR a TAF).

Červené a žluté tečky na mapě představují dostupné meteorologické stanice.

Když kurzor umístíte na tečku, zobrazí se název stanice.

Pak kliknutím zobrazíte stav a předpověď počasí.

Chcete-li změnit mapu, kliknutím na zelené tlačítko se znaménkem +mapu přiblížíte, kliknutím na zelené tlačítko se znaménkem – mapu oddálíte a kliknutím na zelené šipky přejdete na sousední mapy.


METAR-TAF: